
<gpx xmlns="http://www.topografix.com/GPX/1/1" xmlns:gpxx="http://www.garmin.com/xmlschemas/GpxExtensions/v3" xmlns:xsi="http://www.w3.org/2001/XMLSchema-instance" version="1.1" creator="Adze - https://getadze.com/" xsi:schemaLocation="http://www.topografix.com/GPX/1/1 http://www.topografix.com/GPX/1/1/gpx.xsd http://www.garmin.com/xmlschemas/GpxExtensions/v3 http://www.garmin.com/xmlschemas/GpxExtensionsv3.xsd">
    <metadata>
        <name>Untitled Document</name>
        <link href="http://www.garmin.com"></link>
        <time>2018-03-08T07:15:51.693Z</time>
    </metadata>
    <wpt lon="100.974850" lat="12.903748">
        <name>Horsehoe Point</name>
        <sym>Lodging</sym>
        <extensions>
            <gpxx:WaypointExtension xmlns:gpxx="http://www.garmin.com/xmlschemas/GpxExtensions/v3">
                <gpxx:DisplayMode>SymbolOnly</gpxx:DisplayMode>
            </gpxx:WaypointExtension>
        </extensions>
    </wpt>
    <wpt lon="100.981909" lat="12.951878">
        <ele>64.000000</ele>
        <name>April 2010 - Sunday water</name>
        <sym>Drinking Water</sym>
        <extensions>
            <gpxx:WaypointExtension xmlns:gpxx="http://www.garmin.com/xmlschemas/GpxExtensions/v3">
                <gpxx:DisplayMode>SymbolOnly</gpxx:DisplayMode>
            </gpxx:WaypointExtension>
        </extensions>
    </wpt>
    <trk>
        <name>April 2010 - Sunday</name>
        <extensions>
            <gpxx:TrackExtension xmlns:gpxx="http://www.garmin.com/xmlschemas/GpxExtensions/v3">
                <gpxx:DisplayColor>Green</gpxx:DisplayColor>
            </gpxx:TrackExtension>
        </extensions>
        <trkseg>
            <trkpt lon="100.974802" lat="12.905799">
                <ele>97.711182</ele>
                <time>2010-04-24T23:29:30Z</time>
            </trkpt>
            <trkpt lon="100.974852" lat="12.905879">
                <ele>82.810791</ele>
                <time>2010-04-24T23:29:43Z</time>
            </trkpt>
            <trkpt lon="100.974755" lat="12.905827">
                <ele>75.600830</ele>
                <time>2010-04-24T23:34:05Z</time>
            </trkpt>
            <trkpt lon="100.974811" lat="12.905876">
                <ele>71.274902</ele>
                <time>2010-04-24T23:35:18Z</time>
            </trkpt>
            <trkpt lon="100.974869" lat="12.905891">
                <ele>58.777710</ele>
                <time>2010-04-24T23:36:17Z</time>
            </trkpt>
            <trkpt lon="100.974746" lat="12.905742">
                <ele>60.219727</ele>
                <time>2010-04-24T23:40:00Z</time>
            </trkpt>
            <trkpt lon="100.974430" lat="12.906083">
                <ele>60.700317</ele>
                <time>2010-04-24T23:40:21Z</time>
            </trkpt>
            <trkpt lon="100.973728" lat="12.906349">
                <ele>60.219727</ele>
                <time>2010-04-24T23:40:42Z</time>
            </trkpt>
            <trkpt lon="100.973557" lat="12.906000">
                <ele>60.700317</ele>
                <time>2010-04-24T23:40:53Z</time>
            </trkpt>
            <trkpt lon="100.972886" lat="12.906062">
                <ele>62.142334</ele>
                <time>2010-04-24T23:41:13Z</time>
            </trkpt>
            <trkpt lon="100.972614" lat="12.905953">
                <ele>63.103638</ele>
                <time>2010-04-24T23:41:23Z</time>
            </trkpt>
            <trkpt lon="100.971629" lat="12.906303">
                <ele>66.468262</ele>
                <time>2010-04-24T23:41:44Z</time>
            </trkpt>
            <trkpt lon="100.969569" lat="12.906406">
                <ele>67.429688</ele>
                <time>2010-04-24T23:42:24Z</time>
            </trkpt>
            <trkpt lon="100.969856" lat="12.905747">
                <ele>71.274902</ele>
                <time>2010-04-24T23:42:48Z</time>
            </trkpt>
            <trkpt lon="100.969573" lat="12.904942">
                <ele>70.794190</ele>
                <time>2010-04-24T23:43:09Z</time>
            </trkpt>
            <trkpt lon="100.969396" lat="12.903271">
                <ele>73.678223</ele>
                <time>2010-04-24T23:43:44Z</time>
            </trkpt>
            <trkpt lon="100.969853" lat="12.901561">
                <ele>67.429688</ele>
                <time>2010-04-24T23:44:24Z</time>
            </trkpt>
            <trkpt lon="100.968581" lat="12.901622">
                <ele>68.390869</ele>
                <time>2010-04-24T23:44:59Z</time>
            </trkpt>
            <trkpt lon="100.967945" lat="12.901977">
                <ele>67.429688</ele>
                <time>2010-04-24T23:45:19Z</time>
            </trkpt>
            <trkpt lon="100.966257" lat="12.902269">
                <ele>68.390869</ele>
                <time>2010-04-24T23:46:03Z</time>
            </trkpt>
            <trkpt lon="100.965534" lat="12.902522">
                <ele>67.429688</ele>
                <time>2010-04-24T23:46:21Z</time>
            </trkpt>
            <trkpt lon="100.964581" lat="12.902438">
                <ele>63.584351</ele>
                <time>2010-04-24T23:46:47Z</time>
            </trkpt>
            <trkpt lon="100.964243" lat="12.903280">
                <ele>61.661743</ele>
                <time>2010-04-24T23:47:12Z</time>
            </trkpt>
            <trkpt lon="100.964304" lat="12.903530">
                <ele>61.661743</ele>
                <time>2010-04-24T23:47:23Z</time>
            </trkpt>
            <trkpt lon="100.964324" lat="12.903870">
                <ele>60.700317</ele>
                <time>2010-04-24T23:47:33Z</time>
            </trkpt>
            <trkpt lon="100.963979" lat="12.904502">
                <ele>60.700317</ele>
                <time>2010-04-24T23:47:48Z</time>
            </trkpt>
            <trkpt lon="100.963655" lat="12.905094">
                <ele>59.739136</ele>
                <time>2010-04-24T23:48:25Z</time>
            </trkpt>
            <trkpt lon="100.963700" lat="12.905378">
                <ele>53.009766</ele>
                <time>2010-04-24T23:49:53Z</time>
            </trkpt>
            <trkpt lon="100.963986" lat="12.905715">
                <ele>52.048584</ele>
                <time>2010-04-24T23:50:12Z</time>
            </trkpt>
            <trkpt lon="100.964390" lat="12.905868">
                <ele>51.567871</ele>
                <time>2010-04-24T23:50:42Z</time>
            </trkpt>
            <trkpt lon="100.964736" lat="12.906242">
                <ele>52.048584</ele>
                <time>2010-04-24T23:50:56Z</time>
            </trkpt>
            <trkpt lon="100.964725" lat="12.906400">
                <ele>51.567871</ele>
                <time>2010-04-24T23:51:06Z</time>
            </trkpt>
            <trkpt lon="100.962578" lat="12.910184">
                <ele>45.319214</ele>
                <time>2010-04-24T23:52:48Z</time>
            </trkpt>
            <trkpt lon="100.962544" lat="12.911214">
                <ele>48.203369</ele>
                <time>2010-04-24T23:53:17Z</time>
            </trkpt>
            <trkpt lon="100.962707" lat="12.911690">
                <ele>50.125977</ele>
                <time>2010-04-24T23:53:33Z</time>
            </trkpt>
            <trkpt lon="100.962916" lat="12.912768">
                <ele>53.490479</ele>
                <time>2010-04-24T23:54:08Z</time>
            </trkpt>
            <trkpt lon="100.963013" lat="12.913139">
                <ele>53.009766</ele>
                <time>2010-04-24T23:54:23Z</time>
            </trkpt>
            <trkpt lon="100.961455" lat="12.913847">
                <ele>54.451782</ele>
                <time>2010-04-24T23:55:07Z</time>
            </trkpt>
            <trkpt lon="100.959944" lat="12.913699">
                <ele>53.009766</ele>
                <time>2010-04-24T23:55:41Z</time>
            </trkpt>
            <trkpt lon="100.959262" lat="12.913779">
                <ele>53.009766</ele>
                <time>2010-04-24T23:55:56Z</time>
            </trkpt>
            <trkpt lon="100.957453" lat="12.914683">
                <ele>57.335815</ele>
                <time>2010-04-24T23:56:55Z</time>
            </trkpt>
            <trkpt lon="100.956512" lat="12.915286">
                <ele>58.777710</ele>
                <time>2010-04-24T23:57:29Z</time>
            </trkpt>
            <trkpt lon="100.955947" lat="12.915243">
                <ele>58.777710</ele>
                <time>2010-04-24T23:57:44Z</time>
            </trkpt>
            <trkpt lon="100.954730" lat="12.914831">
                <ele>60.700317</ele>
                <time>2010-04-24T23:58:19Z</time>
            </trkpt>
            <trkpt lon="100.953807" lat="12.914307">
                <ele>62.622925</ele>
                <time>2010-04-25T00:00:04Z</time>
            </trkpt>
            <trkpt lon="100.954431" lat="12.914582">
                <ele>60.700317</ele>
                <time>2010-04-25T00:00:34Z</time>
            </trkpt>
            <trkpt lon="100.955477" lat="12.915824">
                <ele>61.181030</ele>
                <time>2010-04-25T00:01:11Z</time>
            </trkpt>
            <trkpt lon="100.955697" lat="12.916941">
                <ele>60.700317</ele>
                <time>2010-04-25T00:01:46Z</time>
            </trkpt>
            <trkpt lon="100.955916" lat="12.917822">
                <ele>59.739136</ele>
                <time>2010-04-25T00:02:07Z</time>
            </trkpt>
            <trkpt lon="100.956135" lat="12.918839">
                <ele>56.374512</ele>
                <time>2010-04-25T00:02:29Z</time>
            </trkpt>
            <trkpt lon="100.956388" lat="12.921590">
                <ele>55.893799</ele>
                <time>2010-04-25T00:03:42Z</time>
            </trkpt>
            <trkpt lon="100.956417" lat="12.922157">
                <ele>53.490479</ele>
                <time>2010-04-25T00:03:54Z</time>
            </trkpt>
            <trkpt lon="100.956607" lat="12.923087">
                <ele>52.048584</ele>
                <time>2010-04-25T00:04:14Z</time>
            </trkpt>
            <trkpt lon="100.956488" lat="12.925434">
                <ele>47.241821</ele>
                <time>2010-04-25T00:05:27Z</time>
            </trkpt>
            <trkpt lon="100.956781" lat="12.927788">
                <ele>43.396606</ele>
                <time>2010-04-25T00:06:28Z</time>
            </trkpt>
            <trkpt lon="100.956841" lat="12.929656">
                <ele>32.822266</ele>
                <time>2010-04-25T00:07:22Z</time>
            </trkpt>
            <trkpt lon="100.957434" lat="12.934720">
                <ele>45.799927</ele>
                <time>2010-04-25T00:09:21Z</time>
            </trkpt>
            <trkpt lon="100.958524" lat="12.940862">
                <ele>53.009766</ele>
                <time>2010-04-25T00:14:08Z</time>
            </trkpt>
            <trkpt lon="100.959535" lat="12.940877">
                <ele>45.799927</ele>
                <time>2010-04-25T00:15:44Z</time>
            </trkpt>
            <trkpt lon="100.958717" lat="12.940849">
                <ele>42.435425</ele>
                <time>2010-04-25T00:16:26Z</time>
            </trkpt>
            <trkpt lon="100.958611" lat="12.941093">
                <ele>44.358032</ele>
                <time>2010-04-25T00:16:36Z</time>
            </trkpt>
            <trkpt lon="100.958707" lat="12.941547">
                <ele>51.087158</ele>
                <time>2010-04-25T00:17:10Z</time>
            </trkpt>
            <trkpt lon="100.958807" lat="12.941886">
                <ele>52.529175</ele>
                <time>2010-04-25T00:17:23Z</time>
            </trkpt>
            <trkpt lon="100.958975" lat="12.942721">
                <ele>54.932373</ele>
                <time>2010-04-25T00:17:57Z</time>
            </trkpt>
            <trkpt lon="100.958813" lat="12.944223">
                <ele>54.932373</ele>
                <time>2010-04-25T00:18:43Z</time>
            </trkpt>
            <trkpt lon="100.958724" lat="12.944595">
                <ele>53.490479</ele>
                <time>2010-04-25T00:18:56Z</time>
            </trkpt>
            <trkpt lon="100.958466" lat="12.944653">
                <ele>52.529175</ele>
                <time>2010-04-25T00:19:06Z</time>
            </trkpt>
            <trkpt lon="100.958339" lat="12.945398">
                <ele>53.009766</ele>
                <time>2010-04-25T00:19:30Z</time>
            </trkpt>
            <trkpt lon="100.958341" lat="12.945905">
                <ele>53.490479</ele>
                <time>2010-04-25T00:19:44Z</time>
            </trkpt>
            <trkpt lon="100.958617" lat="12.946355">
                <ele>55.413086</ele>
                <time>2010-04-25T00:20:01Z</time>
            </trkpt>
            <trkpt lon="100.958584" lat="12.946638">
                <ele>55.893799</ele>
                <time>2010-04-25T00:20:12Z</time>
            </trkpt>
            <trkpt lon="100.957702" lat="12.947749">
                <ele>54.932373</ele>
                <time>2010-04-25T00:20:46Z</time>
            </trkpt>
            <trkpt lon="100.956797" lat="12.948950">
                <ele>50.125977</ele>
                <time>2010-04-25T00:21:19Z</time>
            </trkpt>
            <trkpt lon="100.956437" lat="12.949652">
                <ele>46.761231</ele>
                <time>2010-04-25T00:21:37Z</time>
            </trkpt>
            <trkpt lon="100.956156" lat="12.950688">
                <ele>47.241821</ele>
                <time>2010-04-25T00:22:07Z</time>
            </trkpt>
            <trkpt lon="100.956850" lat="12.950745">
                <ele>45.799927</ele>
                <time>2010-04-25T00:22:28Z</time>
            </trkpt>
            <trkpt lon="100.957510" lat="12.950560">
                <ele>45.799927</ele>
                <time>2010-04-25T00:22:47Z</time>
            </trkpt>
            <trkpt lon="100.958534" lat="12.950770">
                <ele>44.838623</ele>
                <time>2010-04-25T00:23:16Z</time>
            </trkpt>
            <trkpt lon="100.958703" lat="12.950836">
                <ele>43.396606</ele>
                <time>2010-04-25T00:23:26Z</time>
            </trkpt>
            <trkpt lon="100.958449" lat="12.951357">
                <ele>41.954712</ele>
                <time>2010-04-25T00:24:07Z</time>
            </trkpt>
            <trkpt lon="100.958484" lat="12.951710">
                <ele>46.280640</ele>
                <time>2010-04-25T00:25:32Z</time>
            </trkpt>
            <trkpt lon="100.958530" lat="12.952442">
                <ele>45.799927</ele>
                <time>2010-04-25T00:26:37Z</time>
            </trkpt>
            <trkpt lon="100.958240" lat="12.952698">
                <ele>45.319214</ele>
                <time>2010-04-25T00:27:04Z</time>
            </trkpt>
            <trkpt lon="100.958383" lat="12.952662">
                <ele>45.319214</ele>
                <time>2010-04-25T00:28:11Z</time>
            </trkpt>
            <trkpt lon="100.958395" lat="12.952733">
                <ele>43.877319</ele>
                <time>2010-04-25T00:28:25Z</time>
            </trkpt>
            <trkpt lon="100.958293" lat="12.953307">
                <ele>47.241821</ele>
                <time>2010-04-25T00:29:41Z</time>
            </trkpt>
            <trkpt lon="100.957532" lat="12.954306">
                <ele>44.358032</ele>
                <time>2010-04-25T00:30:22Z</time>
            </trkpt>
            <trkpt lon="100.957383" lat="12.954834">
                <ele>45.799927</ele>
                <time>2010-04-25T00:30:38Z</time>
            </trkpt>
            <trkpt lon="100.957487" lat="12.955705">
                <ele>54.451782</ele>
                <time>2010-04-25T00:31:49Z</time>
            </trkpt>
            <trkpt lon="100.957428" lat="12.955057">
                <ele>44.358032</ele>
                <time>2010-04-25T00:34:11Z</time>
            </trkpt>
            <trkpt lon="100.957677" lat="12.955046">
                <ele>45.799927</ele>
                <time>2010-04-25T00:34:26Z</time>
            </trkpt>
            <trkpt lon="100.958530" lat="12.955154">
                <ele>52.529175</ele>
                <time>2010-04-25T00:35:32Z</time>
            </trkpt>
            <trkpt lon="100.960204" lat="12.955625">
                <ele>58.297119</ele>
                <time>2010-04-25T00:37:18Z</time>
            </trkpt>
            <trkpt lon="100.961083" lat="12.955604">
                <ele>63.584351</ele>
                <time>2010-04-25T00:38:08Z</time>
            </trkpt>
            <trkpt lon="100.962815" lat="12.955893">
                <ele>66.948975</ele>
                <time>2010-04-25T00:39:22Z</time>
            </trkpt>
            <trkpt lon="100.963649" lat="12.955996">
                <ele>66.948975</ele>
                <time>2010-04-25T00:39:52Z</time>
            </trkpt>
            <trkpt lon="100.963776" lat="12.956312">
                <ele>64.545654</ele>
                <time>2010-04-25T00:40:05Z</time>
            </trkpt>
            <trkpt lon="100.964106" lat="12.956496">
                <ele>65.026367</ele>
                <time>2010-04-25T00:40:18Z</time>
            </trkpt>
            <trkpt lon="100.964197" lat="12.956604">
                <ele>64.545654</ele>
                <time>2010-04-25T00:40:23Z</time>
            </trkpt>
            <trkpt lon="100.962727" lat="12.957452">
                <ele>67.429688</ele>
                <time>2010-04-25T00:41:22Z</time>
            </trkpt>
            <trkpt lon="100.962859" lat="12.957826">
                <ele>67.429688</ele>
                <time>2010-04-25T00:41:35Z</time>
            </trkpt>
            <trkpt lon="100.963166" lat="12.958793">
                <ele>65.507080</ele>
                <time>2010-04-25T00:42:31Z</time>
            </trkpt>
            <trkpt lon="100.963170" lat="12.959364">
                <ele>64.545654</ele>
                <time>2010-04-25T00:43:10Z</time>
            </trkpt>
            <trkpt lon="100.964139" lat="12.960123">
                <ele>58.777710</ele>
                <time>2010-04-25T00:43:51Z</time>
            </trkpt>
            <trkpt lon="100.964648" lat="12.960055">
                <ele>57.816528</ele>
                <time>2010-04-25T00:44:05Z</time>
            </trkpt>
            <trkpt lon="100.969273" lat="12.957236">
                <ele>59.258423</ele>
                <time>2010-04-25T00:46:26Z</time>
            </trkpt>
            <trkpt lon="100.972741" lat="12.955330">
                <ele>69.832886</ele>
                <time>2010-04-25T00:48:39Z</time>
            </trkpt>
            <trkpt lon="100.973258" lat="12.955123">
                <ele>70.313477</ele>
                <time>2010-04-25T00:48:57Z</time>
            </trkpt>
            <trkpt lon="100.974615" lat="12.954647">
                <ele>66.468262</ele>
                <time>2010-04-25T00:49:32Z</time>
            </trkpt>
            <trkpt lon="100.975188" lat="12.954531">
                <ele>63.103638</ele>
                <time>2010-04-25T00:49:41Z</time>
            </trkpt>
            <trkpt lon="100.975560" lat="12.954699">
                <ele>61.661743</ele>
                <time>2010-04-25T00:49:47Z</time>
            </trkpt>
            <trkpt lon="100.976821" lat="12.956110">
                <ele>62.142334</ele>
                <time>2010-04-25T00:50:22Z</time>
            </trkpt>
            <trkpt lon="100.977570" lat="12.956781">
                <ele>64.065063</ele>
                <time>2010-04-25T00:50:50Z</time>
            </trkpt>
            <trkpt lon="100.977605" lat="12.956770">
                <ele>64.065063</ele>
                <time>2010-04-25T00:51:03Z</time>
            </trkpt>
            <trkpt lon="100.978404" lat="12.956040">
                <ele>59.739136</ele>
                <time>2010-04-25T00:51:29Z</time>
            </trkpt>
            <trkpt lon="100.979842" lat="12.955170">
                <ele>56.855103</ele>
                <time>2010-04-25T00:52:03Z</time>
            </trkpt>
            <trkpt lon="100.979906" lat="12.955012">
                <ele>56.374512</ele>
                <time>2010-04-25T00:52:08Z</time>
            </trkpt>
            <trkpt lon="100.980822" lat="12.954941">
                <ele>55.413086</ele>
                <time>2010-04-25T00:52:31Z</time>
            </trkpt>
            <trkpt lon="100.981155" lat="12.954763">
                <ele>55.413086</ele>
                <time>2010-04-25T00:52:43Z</time>
            </trkpt>
            <trkpt lon="100.981410" lat="12.954366">
                <ele>56.374512</ele>
                <time>2010-04-25T00:52:56Z</time>
            </trkpt>
            <trkpt lon="100.981175" lat="12.953480">
                <ele>57.816528</ele>
                <time>2010-04-25T00:53:22Z</time>
            </trkpt>
            <trkpt lon="100.981158" lat="12.953315">
                <ele>57.816528</ele>
                <time>2010-04-25T00:53:30Z</time>
            </trkpt>
            <trkpt lon="100.981029" lat="12.953290">
                <ele>57.816528</ele>
                <time>2010-04-25T00:53:35Z</time>
            </trkpt>
            <trkpt lon="100.980422" lat="12.953103">
                <ele>57.335815</ele>
                <time>2010-04-25T00:53:51Z</time>
            </trkpt>
            <trkpt lon="100.979481" lat="12.952514">
                <ele>54.932373</ele>
                <time>2010-04-25T00:54:15Z</time>
            </trkpt>
            <trkpt lon="100.979428" lat="12.952237">
                <ele>54.932373</ele>
                <time>2010-04-25T00:54:22Z</time>
            </trkpt>
            <trkpt lon="100.980006" lat="12.951220">
                <ele>55.413086</ele>
                <time>2010-04-25T00:54:53Z</time>
            </trkpt>
            <trkpt lon="100.980835" lat="12.950289">
                <ele>59.258423</ele>
                <time>2010-04-25T00:55:34Z</time>
            </trkpt>
            <trkpt lon="100.980996" lat="12.950436">
                <ele>61.181030</ele>
                <time>2010-04-25T00:56:03Z</time>
            </trkpt>
            <trkpt lon="100.981189" lat="12.950899">
                <ele>61.181030</ele>
                <time>2010-04-25T00:56:20Z</time>
            </trkpt>
            <trkpt lon="100.981592" lat="12.951752">
                <ele>59.739136</ele>
                <time>2010-04-25T00:56:54Z</time>
            </trkpt>
            <trkpt lon="100.982350" lat="12.952219">
                <ele>60.219727</ele>
                <time>2010-04-25T01:01:59Z</time>
            </trkpt>
            <trkpt lon="100.984406" lat="12.950233">
                <ele>67.910278</ele>
                <time>2010-04-25T01:03:43Z</time>
            </trkpt>
            <trkpt lon="100.984725" lat="12.949289">
                <ele>70.313477</ele>
                <time>2010-04-25T01:04:18Z</time>
            </trkpt>
            <trkpt lon="100.985015" lat="12.948744">
                <ele>71.274902</ele>
                <time>2010-04-25T01:04:36Z</time>
            </trkpt>
            <trkpt lon="100.985815" lat="12.947093">
                <ele>69.352295</ele>
                <time>2010-04-25T01:05:17Z</time>
            </trkpt>
            <trkpt lon="100.986673" lat="12.946379">
                <ele>64.065063</ele>
                <time>2010-04-25T01:05:35Z</time>
            </trkpt>
            <trkpt lon="100.987328" lat="12.946010">
                <ele>62.622925</ele>
                <time>2010-04-25T01:05:46Z</time>
            </trkpt>
            <trkpt lon="100.988005" lat="12.944845">
                <ele>61.181030</ele>
                <time>2010-04-25T01:06:09Z</time>
            </trkpt>
            <trkpt lon="100.989765" lat="12.944436">
                <ele>62.142334</ele>
                <time>2010-04-25T01:06:43Z</time>
            </trkpt>
            <trkpt lon="100.990021" lat="12.944225">
                <ele>62.622925</ele>
                <time>2010-04-25T01:06:51Z</time>
            </trkpt>
            <trkpt lon="100.990166" lat="12.943502">
                <ele>62.622925</ele>
                <time>2010-04-25T01:07:07Z</time>
            </trkpt>
            <trkpt lon="100.990134" lat="12.943271">
                <ele>61.181030</ele>
                <time>2010-04-25T01:07:11Z</time>
            </trkpt>
            <trkpt lon="100.989857" lat="12.942430">
                <ele>59.739136</ele>
                <time>2010-04-25T01:07:25Z</time>
            </trkpt>
            <trkpt lon="100.989229" lat="12.941214">
                <ele>61.661743</ele>
                <time>2010-04-25T01:07:55Z</time>
            </trkpt>
            <trkpt lon="100.989285" lat="12.940671">
                <ele>61.661743</ele>
                <time>2010-04-25T01:08:08Z</time>
            </trkpt>
            <trkpt lon="100.989851" lat="12.939358">
                <ele>64.545654</ele>
                <time>2010-04-25T01:08:45Z</time>
            </trkpt>
            <trkpt lon="100.989517" lat="12.939136">
                <ele>65.507080</ele>
                <time>2010-04-25T01:09:00Z</time>
            </trkpt>
            <trkpt lon="100.988437" lat="12.938466">
                <ele>63.584351</ele>
                <time>2010-04-25T01:09:25Z</time>
            </trkpt>
            <trkpt lon="100.988134" lat="12.938548">
                <ele>63.103638</ele>
                <time>2010-04-25T01:09:33Z</time>
            </trkpt>
            <trkpt lon="100.987393" lat="12.939442">
                <ele>61.181030</ele>
                <time>2010-04-25T01:09:55Z</time>
            </trkpt>
            <trkpt lon="100.987146" lat="12.939445">
                <ele>61.661743</ele>
                <time>2010-04-25T01:10:00Z</time>
            </trkpt>
            <trkpt lon="100.986151" lat="12.938968">
                <ele>61.661743</ele>
                <time>2010-04-25T01:10:21Z</time>
            </trkpt>
            <trkpt lon="100.985483" lat="12.938457">
                <ele>58.297119</ele>
                <time>2010-04-25T01:10:36Z</time>
            </trkpt>
            <trkpt lon="100.984565" lat="12.938142">
                <ele>57.335815</ele>
                <time>2010-04-25T01:10:56Z</time>
            </trkpt>
            <trkpt lon="100.984593" lat="12.936647">
                <ele>59.739136</ele>
                <time>2010-04-25T01:11:35Z</time>
            </trkpt>
            <trkpt lon="100.984408" lat="12.936243">
                <ele>59.258423</ele>
                <time>2010-04-25T01:14:46Z</time>
            </trkpt>
            <trkpt lon="100.984919" lat="12.934861">
                <ele>58.777710</ele>
                <time>2010-04-25T01:15:24Z</time>
            </trkpt>
            <trkpt lon="100.984858" lat="12.933873">
                <ele>55.893799</ele>
                <time>2010-04-25T01:15:44Z</time>
            </trkpt>
            <trkpt lon="100.984489" lat="12.933633">
                <ele>57.816528</ele>
                <time>2010-04-25T01:16:04Z</time>
            </trkpt>
            <trkpt lon="100.984340" lat="12.933382">
                <ele>59.739136</ele>
                <time>2010-04-25T01:16:19Z</time>
            </trkpt>
            <trkpt lon="100.984048" lat="12.932532">
                <ele>61.661743</ele>
                <time>2010-04-25T01:16:56Z</time>
            </trkpt>
            <trkpt lon="100.985366" lat="12.931535">
                <ele>63.584351</ele>
                <time>2010-04-25T01:17:52Z</time>
            </trkpt>
            <trkpt lon="100.986449" lat="12.931047">
                <ele>65.026367</ele>
                <time>2010-04-25T01:18:21Z</time>
            </trkpt>
            <trkpt lon="100.985984" lat="12.929696">
                <ele>66.948975</ele>
                <time>2010-04-25T01:19:05Z</time>
            </trkpt>
            <trkpt lon="100.986097" lat="12.928644">
                <ele>65.507080</ele>
                <time>2010-04-25T01:19:38Z</time>
            </trkpt>
            <trkpt lon="100.986797" lat="12.927876">
                <ele>67.910278</ele>
                <time>2010-04-25T01:20:11Z</time>
            </trkpt>
            <trkpt lon="100.987543" lat="12.926338">
                <ele>66.948975</ele>
                <time>2010-04-25T01:21:02Z</time>
            </trkpt>
            <trkpt lon="100.987662" lat="12.925648">
                <ele>67.910278</ele>
                <time>2010-04-25T01:21:28Z</time>
            </trkpt>
            <trkpt lon="100.986664" lat="12.925129">
                <ele>67.429688</ele>
                <time>2010-04-25T01:22:02Z</time>
            </trkpt>
            <trkpt lon="100.985405" lat="12.924901">
                <ele>65.507080</ele>
                <time>2010-04-25T01:22:31Z</time>
            </trkpt>
            <trkpt lon="100.983475" lat="12.925313">
                <ele>65.987671</ele>
                <time>2010-04-25T01:23:52Z</time>
            </trkpt>
            <trkpt lon="100.982741" lat="12.925336">
                <ele>65.026367</ele>
                <time>2010-04-25T01:24:17Z</time>
            </trkpt>
            <trkpt lon="100.982829" lat="12.925248">
                <ele>65.026367</ele>
                <time>2010-04-25T01:24:36Z</time>
            </trkpt>
            <trkpt lon="100.982223" lat="12.924720">
                <ele>62.622925</ele>
                <time>2010-04-25T01:25:10Z</time>
            </trkpt>
            <trkpt lon="100.981807" lat="12.923682">
                <ele>61.661743</ele>
                <time>2010-04-25T01:25:47Z</time>
            </trkpt>
            <trkpt lon="100.981776" lat="12.923335">
                <ele>60.700317</ele>
                <time>2010-04-25T01:25:57Z</time>
            </trkpt>
            <trkpt lon="100.981928" lat="12.922698">
                <ele>62.622925</ele>
                <time>2010-04-25T01:26:17Z</time>
            </trkpt>
            <trkpt lon="100.982114" lat="12.922591">
                <ele>64.065063</ele>
                <time>2010-04-25T01:26:27Z</time>
            </trkpt>
            <trkpt lon="100.982112" lat="12.922300">
                <ele>65.987671</ele>
                <time>2010-04-25T01:26:40Z</time>
            </trkpt>
            <trkpt lon="100.982129" lat="12.922170">
                <ele>65.987671</ele>
                <time>2010-04-25T01:26:46Z</time>
            </trkpt>
            <trkpt lon="100.982574" lat="12.922082">
                <ele>72.236206</ele>
                <time>2010-04-25T01:27:08Z</time>
            </trkpt>
            <trkpt lon="100.983004" lat="12.921943">
                <ele>74.639526</ele>
                <time>2010-04-25T01:27:25Z</time>
            </trkpt>
            <trkpt lon="100.983447" lat="12.921739">
                <ele>75.120239</ele>
                <time>2010-04-25T01:27:42Z</time>
            </trkpt>
            <trkpt lon="100.983775" lat="12.921484">
                <ele>71.755493</ele>
                <time>2010-04-25T01:27:57Z</time>
            </trkpt>
            <trkpt lon="100.984120" lat="12.920130">
                <ele>70.794190</ele>
                <time>2010-04-25T01:28:48Z</time>
            </trkpt>
            <trkpt lon="100.984432" lat="12.919782">
                <ele>72.236206</ele>
                <time>2010-04-25T01:29:03Z</time>
            </trkpt>
            <trkpt lon="100.985316" lat="12.919398">
                <ele>79.926636</ele>
                <time>2010-04-25T01:29:56Z</time>
            </trkpt>
            <trkpt lon="100.985555" lat="12.918908">
                <ele>82.330078</ele>
                <time>2010-04-25T01:30:27Z</time>
            </trkpt>
            <trkpt lon="100.986124" lat="12.918916">
                <ele>85.213989</ele>
                <time>2010-04-25T01:30:54Z</time>
            </trkpt>
            <trkpt lon="100.987271" lat="12.918960">
                <ele>85.694580</ele>
                <time>2010-04-25T01:31:29Z</time>
            </trkpt>
            <trkpt lon="100.987720" lat="12.918924">
                <ele>88.578735</ele>
                <time>2010-04-25T01:31:42Z</time>
            </trkpt>
            <trkpt lon="100.987795" lat="12.918803">
                <ele>89.539917</ele>
                <time>2010-04-25T01:31:49Z</time>
            </trkpt>
            <trkpt lon="100.987806" lat="12.919876">
                <ele>81.849365</ele>
                <time>2010-04-25T01:32:18Z</time>
            </trkpt>
            <trkpt lon="100.988027" lat="12.919135">
                <ele>84.733398</ele>
                <time>2010-04-25T01:32:56Z</time>
            </trkpt>
            <trkpt lon="100.988050" lat="12.918954">
                <ele>84.733398</ele>
                <time>2010-04-25T01:33:05Z</time>
            </trkpt>
            <trkpt lon="100.988368" lat="12.918811">
                <ele>85.213989</ele>
                <time>2010-04-25T01:33:19Z</time>
            </trkpt>
            <trkpt lon="100.989746" lat="12.918987">
                <ele>90.501343</ele>
                <time>2010-04-25T01:34:09Z</time>
            </trkpt>
            <trkpt lon="100.990300" lat="12.919113">
                <ele>90.020630</ele>
                <time>2010-04-25T01:34:28Z</time>
            </trkpt>
            <trkpt lon="100.991329" lat="12.919042">
                <ele>92.423950</ele>
                <time>2010-04-25T01:35:06Z</time>
            </trkpt>
            <trkpt lon="100.991728" lat="12.919050">
                <ele>91.462524</ele>
                <time>2010-04-25T01:35:22Z</time>
            </trkpt>
            <trkpt lon="100.991870" lat="12.919550">
                <ele>90.020630</ele>
                <time>2010-04-25T01:35:40Z</time>
            </trkpt>
            <trkpt lon="100.992858" lat="12.920025">
                <ele>91.943237</ele>
                <time>2010-04-25T01:36:15Z</time>
            </trkpt>
            <trkpt lon="100.993427" lat="12.920328">
                <ele>91.943237</ele>
                <time>2010-04-25T01:36:31Z</time>
            </trkpt>
            <trkpt lon="100.993555" lat="12.920528">
                <ele>91.943237</ele>
                <time>2010-04-25T01:36:37Z</time>
            </trkpt>
            <trkpt lon="100.993866" lat="12.921036">
                <ele>90.501343</ele>
                <time>2010-04-25T01:36:51Z</time>
            </trkpt>
            <trkpt lon="100.994473" lat="12.921587">
                <ele>90.020630</ele>
                <time>2010-04-25T01:37:09Z</time>
            </trkpt>
            <trkpt lon="100.995149" lat="12.921923">
                <ele>91.462524</ele>
                <time>2010-04-25T01:37:29Z</time>
            </trkpt>
            <trkpt lon="100.995454" lat="12.921803">
                <ele>91.943237</ele>
                <time>2010-04-25T01:37:41Z</time>
            </trkpt>
            <trkpt lon="100.996561" lat="12.920809">
                <ele>94.827148</ele>
                <time>2010-04-25T01:38:36Z</time>
            </trkpt>
            <trkpt lon="100.997038" lat="12.920527">
                <ele>96.749878</ele>
                <time>2010-04-25T01:38:54Z</time>
            </trkpt>
            <trkpt lon="100.998136" lat="12.920570">
                <ele>99.633789</ele>
                <time>2010-04-25T01:39:29Z</time>
            </trkpt>
            <trkpt lon="100.999860" lat="12.921759">
                <ele>95.788452</ele>
                <time>2010-04-25T01:40:23Z</time>
            </trkpt>
            <trkpt lon="101.000102" lat="12.921805">
                <ele>98.672485</ele>
                <time>2010-04-25T01:43:05Z</time>
            </trkpt>
            <trkpt lon="101.000603" lat="12.920908">
                <ele>94.346558</ele>
                <time>2010-04-25T01:43:41Z</time>
            </trkpt>
            <trkpt lon="101.000483" lat="12.920204">
                <ele>91.943237</ele>
                <time>2010-04-25T01:43:55Z</time>
            </trkpt>
            <trkpt lon="100.999544" lat="12.918886">
                <ele>91.462524</ele>
                <time>2010-04-25T01:44:40Z</time>
            </trkpt>
            <trkpt lon="100.999283" lat="12.918584">
                <ele>90.501343</ele>
                <time>2010-04-25T01:44:50Z</time>
            </trkpt>
            <trkpt lon="100.998526" lat="12.918267">
                <ele>87.136597</ele>
                <time>2010-04-25T01:45:07Z</time>
            </trkpt>
            <trkpt lon="100.996904" lat="12.917991">
                <ele>85.694580</ele>
                <time>2010-04-25T01:45:48Z</time>
            </trkpt>
            <trkpt lon="100.993906" lat="12.918562">
                <ele>87.617188</ele>
                <time>2010-04-25T01:46:56Z</time>
            </trkpt>
            <trkpt lon="100.993503" lat="12.918532">
                <ele>88.578735</ele>
                <time>2010-04-25T01:47:06Z</time>
            </trkpt>
            <trkpt lon="100.992564" lat="12.918138">
                <ele>88.578735</ele>
                <time>2010-04-25T01:47:29Z</time>
            </trkpt>
            <trkpt lon="100.990117" lat="12.917041">
                <ele>86.656006</ele>
                <time>2010-04-25T01:48:26Z</time>
            </trkpt>
            <trkpt lon="100.989204" lat="12.916612">
                <ele>85.213989</ele>
                <time>2010-04-25T01:48:48Z</time>
            </trkpt>
            <trkpt lon="100.991363" lat="12.914015">
                <ele>78.004028</ele>
                <time>2010-04-25T01:49:55Z</time>
            </trkpt>
            <trkpt lon="100.991312" lat="12.913801">
                <ele>77.042847</ele>
                <time>2010-04-25T01:50:06Z</time>
            </trkpt>
            <trkpt lon="100.989298" lat="12.910857">
                <ele>74.639526</ele>
                <time>2010-04-25T01:51:36Z</time>
            </trkpt>
            <trkpt lon="100.987650" lat="12.908182">
                <ele>72.716919</ele>
                <time>2010-04-25T01:53:10Z</time>
            </trkpt>
            <trkpt lon="100.986408" lat="12.907235">
                <ele>72.716919</ele>
                <time>2010-04-25T01:53:52Z</time>
            </trkpt>
            <trkpt lon="100.985379" lat="12.907567">
                <ele>69.352295</ele>
                <time>2010-04-25T01:54:32Z</time>
            </trkpt>
            <trkpt lon="100.985409" lat="12.906662">
                <ele>68.871582</ele>
                <time>2010-04-25T01:55:04Z</time>
            </trkpt>
            <trkpt lon="100.984879" lat="12.905672">
                <ele>69.352295</ele>
                <time>2010-04-25T01:55:38Z</time>
            </trkpt>
            <trkpt lon="100.984647" lat="12.904621">
                <ele>73.678223</ele>
                <time>2010-04-25T01:56:14Z</time>
            </trkpt>
            <trkpt lon="100.984369" lat="12.903566">
                <ele>75.600830</ele>
                <time>2010-04-25T01:56:50Z</time>
            </trkpt>
            <trkpt lon="100.984032" lat="12.903244">
                <ele>68.871582</ele>
                <time>2010-04-25T01:57:04Z</time>
            </trkpt>
            <trkpt lon="100.983199" lat="12.902840">
                <ele>75.600830</ele>
                <time>2010-04-25T01:57:44Z</time>
            </trkpt>
            <trkpt lon="100.982900" lat="12.902925">
                <ele>78.484741</ele>
                <time>2010-04-25T01:57:57Z</time>
            </trkpt>
            <trkpt lon="100.982676" lat="12.903175">
                <ele>79.926636</ele>
                <time>2010-04-25T01:58:10Z</time>
            </trkpt>
            <trkpt lon="100.982621" lat="12.903561">
                <ele>83.771973</ele>
                <time>2010-04-25T01:58:22Z</time>
            </trkpt>
            <trkpt lon="100.982401" lat="12.903635">
                <ele>83.771973</ele>
                <time>2010-04-25T01:58:28Z</time>
            </trkpt>
            <trkpt lon="100.980120" lat="12.903519">
                <ele>78.484741</ele>
                <time>2010-04-25T01:59:25Z</time>
            </trkpt>
            <trkpt lon="100.979207" lat="12.906275">
                <ele>72.236206</ele>
                <time>2010-04-25T02:00:37Z</time>
            </trkpt>
            <trkpt lon="100.979264" lat="12.906526">
                <ele>69.832886</ele>
                <time>2010-04-25T02:01:22Z</time>
            </trkpt>
            <trkpt lon="100.978092" lat="12.904516">
                <ele>71.274902</ele>
                <time>2010-04-25T02:02:48Z</time>
            </trkpt>
            <trkpt lon="100.977269" lat="12.904211">
                <ele>69.832886</ele>
                <time>2010-04-25T02:03:10Z</time>
            </trkpt>
            <trkpt lon="100.976505" lat="12.904404">
                <ele>67.910278</ele>
                <time>2010-04-25T02:03:42Z</time>
            </trkpt>
            <trkpt lon="100.976470" lat="12.904596">
                <ele>68.871582</ele>
                <time>2010-04-25T02:03:48Z</time>
            </trkpt>
            <trkpt lon="100.976307" lat="12.904689">
                <ele>68.390869</ele>
                <time>2010-04-25T02:03:53Z</time>
            </trkpt>
            <trkpt lon="100.975614" lat="12.904814">
                <ele>66.948975</ele>
                <time>2010-04-25T02:04:08Z</time>
            </trkpt>
            <trkpt lon="100.974168" lat="12.904670">
                <ele>66.948975</ele>
                <time>2010-04-25T02:04:55Z</time>
            </trkpt>
            <trkpt lon="100.974048" lat="12.905015">
                <ele>67.910278</ele>
                <time>2010-04-25T02:05:07Z</time>
            </trkpt>
            <trkpt lon="100.974204" lat="12.905564">
                <ele>68.390869</ele>
                <time>2010-04-25T02:05:23Z</time>
            </trkpt>
            <trkpt lon="100.974310" lat="12.906095">
                <ele>67.429688</ele>
                <time>2010-04-25T02:05:40Z</time>
            </trkpt>
            <trkpt lon="100.974815" lat="12.905889">
                <ele>70.313477</ele>
                <time>2010-04-25T02:06:10Z</time>
            </trkpt>
            <trkpt lon="100.974844" lat="12.905873">
                <ele>69.352295</ele>
                <time>2010-04-25T02:06:22Z</time>
            </trkpt>
        </trkseg>
    </trk>
</gpx>